Rechercher aéroport 
image banner adimage banner adimage banner ad
image banner ad

L00 - Rosamond Skypark

Situé à Rosamond, United States

ICAO - L00, IATA -

Données fournies par Airmate  

Information générale

Coordonnées: N34°52'14" W118°12'20"
Élévation : 2415 feet MSL.
Variation magnétique : 14° East
Voir autres Aéroports à California

Données opérationnelles

Special qualification required
Heure actuelle UTC:
Heure actuelle locale:
Météo à : KWJF - General Wm J Fox Airfield ( 14 km )
METAR: KWJF 210056Z 07014KT 10SM CLR 32/M02 A2999 RMK AO2 SLP139 T03171017
TAF: KWJF 202334Z 2100/2124 09012KT P6SM SKC FM210200 11005KT P6SM SKC FM210500 VRB03KT P6SM SKC FM211800 07010KT P6SM SKC
Voir NOTAMs / SUP AIP / TFR affectant cet aéroport [VIEW]
Fréquences de communication: [VIEW]

Pistes:

Identifiant RWYQFULongueur (ft)Largeur (ft)SurfaceLDA (ft)
08360050ASPH
26360050ASPH

Coordonnées de l'aéroport

Adresse: Rosamond United States

Vue satellite de L00